Terminal Aerodrome Forecast
Issued by NWS Wakefield, VA

Home | Current Version | Previous Version | Text Only | Print | Product List | Glossary On
Versions: 1 2 3 4 5 6 7 8 9 10 11 12 13 14 15 16 17
000
FTUS41 KAKQ 252000 AAA
TAFORF
TAF AMD
KORF 252008Z 2520/2618 01009KT P6SM SCT015 OVC070
      TEMPO 2520/2522 3SM -RA BR OVC015
     FM260500 02016G26KT 2SM RA BR BKN005 OVC010=

USA.gov is the U.S. government's official web portal to all federal, state and local government web resources and services.